Time;durP1;ratioP1;P1;durP2;ratioP2;P2;SDS_P1;SDS_P2;PMS_P1;PMS_P2;Temp;Humidity;BMP_temperature;BMP_pressure;BME280_temperature;BME280_humidity;BME280_pressure;Samples;Min_cycle;Max_cycle;Signal;HPM_P1;HPM_P2
2024/02/05 00:00:12;;;;;;;2.70;1.10;;;;;;;4.18;100.00;98425.31;87599;266;140601;-72
2024/02/05 00:02:15;;;;;;;2.10;1.20;;;;;;;4.22;100.00;98418.60;87752;274;24241;-73
2024/02/05 00:04:16;;;;;;;3.70;1.30;;;;;;;4.25;100.00;98422.15;87736;270;135699;-73
2024/02/05 00:06:18;;;;;;;3.00;1.50;;;;;;;4.23;100.00;98413.66;87743;266;24013;-74
2024/02/05 00:08:20;;;;;;;5.20;1.40;;;;;;;4.21;100.00;98413.73;87445;271;136048;-73
2024/02/05 00:10:23;;;;;;;5.80;1.90;;;;;;;4.18;100.00;98414.56;87485;270;22774;-72
2024/02/05 00:12:25;;;;;;;1.40;0.90;;;;;;;4.16;100.00;98410.17;87497;266;136016;-72
2024/02/05 00:14:27;;;;;;;2.30;0.70;;;;;;;4.18;100.00;98410.05;87478;278;25098;-73
2024/02/05 00:16:29;;;;;;;2.40;1.00;;;;;;;4.24;100.00;98396.82;87745;266;137787;-72
2024/02/05 00:18:31;;;;;;;2.20;1.00;;;;;;;4.28;100.00;98389.45;88421;278;22623;-73
2024/02/05 00:20:33;;;;;;;2.00;0.90;;;;;;;4.34;100.00;98384.45;87944;274;136977;-72
2024/02/05 00:22:36;;;;;;;1.30;0.70;;;;;;;4.34;100.00;98379.10;87976;273;22914;-73
2024/02/05 00:24:38;;;;;;;1.50;1.30;;;;;;;4.30;100.00;98374.54;88609;270;136166;-74
2024/02/05 00:26:40;;;;;;;1.40;1.00;;;;;;;4.28;100.00;98369.73;88205;271;24145;-73
2024/02/05 00:28:42;;;;;;;4.50;1.40;;;;;;;4.28;100.00;98372.17;88319;268;137067;-75
2024/02/05 00:30:44;;;;;;;6.90;1.50;;;;;;;4.27;100.00;98371.27;88734;266;24110;-73
2024/02/05 00:32:46;;;;;;;3.50;1.20;;;;;;;4.28;100.00;98359.18;87882;277;136562;-74
2024/02/05 00:34:48;;;;;;;3.60;1.00;;;;;;;4.35;100.00;98364.45;87251;266;24004;-74
2024/02/05 00:36:50;;;;;;;3.00;1.20;;;;;;;4.41;100.00;98365.77;87417;265;136437;-73
2024/02/05 00:38:51;;;;;;;2.70;1.50;;;;;;;4.46;100.00;98364.95;87219;270;25204;-74
2024/02/05 00:40:53;;;;;;;6.60;2.30;;;;;;;4.48;100.00;98358.51;87187;277;137131;-74
2024/02/05 00:42:56;;;;;;;1.70;1.30;;;;;;;4.52;100.00;98356.88;87244;274;22564;-72
2024/02/05 00:45:00;;;;;;;2.00;1.00;;;;;;;4.50;100.00;98356.46;87041;270;136090;-74
2024/02/05 00:47:02;;;;;;;1.50;1.00;;;;;;;4.48;100.00;98350.62;87282;277;25220;-73
2024/02/05 00:49:05;;;;;;;3.10;1.50;;;;;;;4.45;100.00;98346.27;87359;276;136898;-73
2024/02/05 00:51:07;;;;;;;2.70;1.40;;;;;;;4.41;100.00;98343.94;87235;270;24110;-74
2024/02/05 00:53:09;;;;;;;5.10;1.30;;;;;;;4.39;100.00;98337.92;87031;267;137199;-74
2024/02/05 00:55:10;;;;;;;4.80;1.30;;;;;;;4.40;100.00;98327.23;87156;274;23365;-75
2024/02/05 00:57:12;;;;;;;1.80;1.30;;;;;;;4.42;100.00;98326.58;87193;270;136698;-74
2024/02/05 00:59:14;;;;;;;2.70;1.10;;;;;;;4.45;100.00;98321.99;87114;267;22552;-73
2024/02/05 01:01:17;;;;;;;2.60;1.90;;;;;;;4.41;100.00;98323.25;87123;266;136503;-73
2024/02/05 01:03:18;;;;;;;4.10;1.70;;;;;;;4.32;100.00;98316.52;87717;265;24267;-74
2024/02/05 01:05:23;;;;;;;5.20;2.60;;;;;;;4.26;100.00;98308.05;87156;278;135995;-72
2024/02/05 01:07:26;;;;;;;2.20;1.80;;;;;;;4.24;100.00;98301.76;87396;270;22593;-75
2024/02/05 01:09:28;;;;;;;5.10;1.90;;;;;;;4.26;100.00;98290.77;87152;273;136610;-73
2024/02/05 01:11:31;;;;;;;1.70;1.60;;;;;;;4.28;100.00;98295.45;87228;273;22677;-73
2024/02/05 01:13:33;;;;;;;2.10;1.30;;;;;;;4.28;100.00;98287.41;87087;266;136520;-73
2024/02/05 01:15:35;;;;;;;3.00;1.20;;;;;;;4.28;100.00;98287.61;87043;279;25246;-74
2024/02/05 01:17:37;;;;;;;3.30;1.50;;;;;;;4.23;100.00;98277.49;86975;274;603733;-74
2024/02/05 01:19:39;;;;;;;2.40;1.30;;;;;;;4.21;100.00;98276.06;87238;269;22569;-73
2024/02/05 01:21:41;;;;;;;3.60;2.50;;;;;;;4.21;100.00;98279.02;87116;269;135860;-74
2024/02/05 01:23:43;;;;;;;3.30;1.90;;;;;;;4.22;100.00;98273.75;87124;274;24607;-74
2024/02/05 01:25:45;;;;;;;2.00;1.80;;;;;;;4.27;100.00;98272.55;87031;270;136560;-74
2024/02/05 01:27:47;;;;;;;4.30;2.10;;;;;;;4.36;100.00;98270.08;87061;270;22608;-74
2024/02/05 01:29:49;;;;;;;2.70;1.50;;;;;;;4.42;100.00;98269.41;87098;269;136787;-74
2024/02/05 01:31:50;;;;;;;1.90;1.70;;;;;;;4.45;100.00;98268.67;87069;270;23628;-74
2024/02/05 01:33:52;;;;;;;3.20;2.20;;;;;;;4.42;100.00;98267.29;86828;271;135528;-74
2024/02/05 01:35:55;;;;;;;5.30;2.40;;;;;;;4.38;100.00;98267.72;87160;267;23780;-74
2024/02/05 01:37:57;;;;;;;4.70;2.90;;;;;;;4.38;100.00;98269.91;87119;278;135848;-73
2024/02/05 01:39:58;;;;;;;3.70;1.70;;;;;;;4.40;100.00;98261.39;87178;270;24007;-73
2024/02/05 01:42:00;;;;;;;1.90;1.60;;;;;;;4.47;100.00;98263.85;87309;274;136238;-73
2024/02/05 01:44:03;;;;;;;3.40;1.50;;;;;;;4.56;100.00;98259.52;87100;266;137404;-71
2024/02/05 01:46:05;;;;;;;2.90;1.30;;;;;;;4.62;100.00;98260.14;87314;270;23997;-73
2024/02/05 01:48:08;;;;;;;4.00;2.70;;;;;;;4.63;100.00;98261.06;87091;266;136355;-73
2024/02/05 01:50:12;;;;;;;3.50;2.30;;;;;;;4.59;100.00;98252.79;87368;273;22543;-70
2024/02/05 01:52:18;;;;;;;2.80;1.90;;;;;;;4.58;100.00;98251.03;87051;271;136041;-72
2024/02/05 01:54:21;;;;;;;3.00;1.70;;;;;;;4.56;100.00;98257.29;87161;269;26182;-72
2024/02/05 01:56:30;;;;;;;4.50;2.10;;;;;;;4.58;100.00;98255.46;87095;270;136245;-72
2024/02/05 01:58:32;;;;;;;2.40;2.00;;;;;;;4.67;100.00;98253.70;87159;269;22564;-73
2024/02/05 02:00:34;;;;;;;2.10;1.40;;;;;;;4.77;100.00;98247.41;86829;270;137816;-73
2024/02/05 02:02:39;;;;;;;3.80;1.70;;;;;;;4.83;100.00;98245.10;87052;267;25149;-74
2024/02/05 02:04:41;;;;;;;2.90;1.60;;;;;;;4.83;100.00;98244.40;87217;269;136321;-72
2024/02/05 02:06:44;;;;;;;3.50;2.10;;;;;;;4.80;100.00;98237.38;87181;269;25608;-74
2024/02/05 02:08:48;;;;;;;4.30;2.00;;;;;;;4.80;100.00;98233.00;87325;277;136343;-73
2024/02/05 02:10:50;;;;;;;4.10;2.40;;;;;;;4.80;100.00;98231.29;87211;269;22563;-73
2024/02/05 02:12:51;;;;;;;6.10;2.60;;;;;;;4.80;100.00;98226.95;86867;269;136058;-73
2024/02/05 02:14:54;;;;;;;6.90;1.80;;;;;;;4.86;100.00;98220.71;86991;272;25768;-73
2024/02/05 02:16:56;;;;;;;2.90;1.60;;;;;;;4.96;100.00;98219.52;86983;274;137603;-73
2024/02/05 02:19:01;;;;;;;2.10;1.00;;;;;;;5.04;100.00;98210.16;87182;269;22945;-73
2024/02/05 02:21:04;;;;;;;2.90;1.90;;;;;;;5.07;100.00;98206.46;86937;273;138071;-74
2024/02/05 02:23:29;;;;;;;5.00;1.50;;;;;;;5.07;100.00;98201.63;87256;267;25166;-72
2024/02/05 02:25:31;;;;;;;3.00;2.00;;;;;;;5.06;100.00;98197.52;86924;274;135712;-74
2024/02/05 02:27:33;;;;;;;2.00;1.50;;;;;;;5.06;100.00;98203.70;87094;266;22622;-73
2024/02/05 02:29:35;;;;;;;3.00;1.40;;;;;;;5.03;100.00;98204.06;87069;271;135863;-73
2024/02/05 02:31:38;;;;;;;1.90;1.20;;;;;;;4.99;100.00;98200.17;87398;274;25252;-73
2024/02/05 02:33:53;;;;;;;3.70;2.00;;;;;;;5.03;100.00;98204.64;86940;273;136839;-72
2024/02/05 02:36:05;;;;;;;3.20;2.00;;;;;;;5.06;100.00;98208.40;87152;273;25461;-72
2024/02/05 02:38:16;;;;;;;2.10;1.70;;;;;;;5.10;100.00;98205.85;86994;263;22703;-73
2024/02/05 02:40:20;;;;;;;4.30;1.30;;;;;;;5.07;100.00;98202.33;86922;270;136604;-73
2024/02/05 02:42:24;;;;;;;6.00;1.30;;;;;;;5.04;100.00;98207.27;87178;273;22560;-74
2024/02/05 02:44:27;;;;;;;3.80;0.80;;;;;;;5.01;100.00;98205.29;86936;270;136169;-74
2024/02/05 02:46:30;;;;;;;3.30;2.00;;;;;;;4.96;100.00;98192.54;87069;277;25210;-72
2024/02/05 02:48:32;;;;;;;2.40;1.50;;;;;;;4.98;100.00;98191.69;87206;273;137367;-73
2024/02/05 02:50:34;;;;;;;4.20;1.40;;;;;;;5.03;100.00;98186.36;87073;268;22560;-75
2024/02/05 02:52:36;;;;;;;2.50;1.60;;;;;;;5.04;100.00;98189.20;86979;264;136879;-73
2024/02/05 02:54:38;;;;;;;3.60;2.60;;;;;;;5.02;100.00;98189.81;87026;269;22679;-72
2024/02/05 02:56:41;;;;;;;3.00;1.60;;;;;;;4.98;100.00;98193.91;86994;270;135937;-72
2024/02/05 02:58:43;;;;;;;3.90;1.50;;;;;;;4.93;100.00;98199.16;87132;267;25202;-74
2024/02/05 03:00:45;;;;;;;4.30;1.30;;;;;;;4.86;100.00;98194.46;87042;271;136162;-73
2024/02/05 03:02:47;;;;;;;2.30;1.60;;;;;;;4.88;100.00;98201.44;86947;270;25118;-73
2024/02/05 03:04:48;;;;;;;2.00;1.40;;;;;;;4.94;100.00;98209.55;86996;275;136701;-73
2024/02/05 03:06:50;;;;;;;3.90;1.70;;;;;;;4.94;100.00;98202.62;87205;271;22754;-73
2024/02/05 03:08:52;;;;;;;5.00;1.50;;;;;;;4.93;100.00;98201.80;87108;277;136819;-72
2024/02/05 03:10:54;;;;;;;2.00;0.80;;;;;;;4.88;100.00;98200.59;87151;270;22648;-75
2024/02/05 03:12:56;;;;;;;4.00;0.80;;;;;;;4.75;100.00;98205.62;87025;274;137007;-71
2024/02/05 03:14:59;;;;;;;2.10;0.70;;;;;;;4.59;100.00;98225.23;87014;278;22554;-73
2024/02/05 03:17:02;;;;;;;1.10;0.30;;;;;;;4.44;100.00;98216.27;87009;277;136298;-71
2024/02/05 03:19:04;;;;;;;2.00;0.10;;;;;;;4.29;100.00;98201.07;87222;276;22648;-72
2024/02/05 03:21:06;;;;;;;1.70;0.10;;;;;;;4.04;100.00;98180.45;87115;270;138620;-70
2024/02/05 03:23:10;;;;;;;0.40;0.00;;;;;;;3.78;100.00;98186.13;87175;273;22638;-70
2024/02/05 03:25:14;;;;;;;1.70;0.70;;;;;;;3.60;100.00;98207.00;87053;270;136807;-71
2024/02/05 03:27:17;;;;;;;0.20;0.10;;;;;;;3.50;100.00;98206.72;87136;274;22568;-73
2024/02/05 03:29:18;;;;;;;1.00;0.10;;;;;;;3.44;100.00;98192.36;87164;271;136244;-71
2024/02/05 03:31:20;;;;;;;0.50;0.10;;;;;;;3.37;100.00;98190.09;87203;270;23512;-71
2024/02/05 03:33:22;;;;;;;0.60;0.30;;;;;;;3.29;100.00;98198.95;87089;274;136232;-72
2024/02/05 03:35:26;;;;;;;0.70;0.60;;;;;;;3.22;100.00;98201.78;87134;270;22563;-72
2024/02/05 03:37:28;;;;;;;0.30;0.30;;;;;;;3.15;100.00;98199.72;87098;269;136236;-71
2024/02/05 03:39:30;;;;;;;1.30;0.10;;;;;;;3.16;100.00;98206.61;87151;270;24058;-71
2024/02/05 03:41:32;;;;;;;0.50;0.10;;;;;;;3.19;100.00;98208.35;87335;271;138120;-71
2024/02/05 03:43:34;;;;;;;1.40;0.30;;;;;;;3.18;100.00;98210.71;87180;268;22813;-72
2024/02/05 03:45:36;;;;;;;0.30;0.10;;;;;;;3.16;100.00;98217.87;87014;268;137155;-72
2024/02/05 03:47:38;;;;;;;0.40;0.10;;;;;;;3.12;100.00;98232.50;87156;269;27296;-72
2024/02/05 03:49:39;;;;;;;3.80;0.30;;;;;;;3.06;100.00;98217.92;87102;270;136898;-71
2024/02/05 03:51:41;;;;;;;0.10;0.10;;;;;;;2.97;100.00;98218.98;87155;271;25064;-71
2024/02/05 03:53:43;;;;;;;0.50;0.30;;;;;;;2.88;100.00;98215.64;87042;270;136271;-71
2024/02/05 03:55:45;;;;;;;0.10;0.10;;;;;;;2.87;100.00;98216.85;87187;270;23307;-72
2024/02/05 03:58:07;;;;;;;0.10;0.10;;;;;;;2.91;100.00;98220.55;87033;269;136699;-71
2024/02/05 04:00:11;;;;;;;0.20;0.10;;;;;;;2.96;100.00;98230.40;86950;277;137074;-71
2024/02/05 04:02:13;;;;;;;0.20;0.10;;;;;;;2.98;100.00;98243.21;87323;270;25164;-71
2024/02/05 04:04:15;;;;;;;0.10;0.00;;;;;;;3.01;100.00;98232.57;87032;274;137172;-70
2024/02/05 04:06:17;;;;;;;0.20;0.20;;;;;;;3.00;100.00;98221.33;87016;266;22836;-72
2024/02/05 04:08:21;;;;;;;0.40;0.10;;;;;;;2.95;100.00;98218.41;87012;274;137623;-71
2024/02/05 04:10:23;;;;;;;0.20;0.20;;;;;;;2.87;100.00;98217.78;87190;274;23551;-71
2024/02/05 04:12:25;;;;;;;0.70;0.10;;;;;;;2.88;100.00;98200.41;86944;270;139139;-70
2024/02/05 04:14:26;;;;;;;0.10;0.10;;;;;;;2.92;100.00;98189.76;87195;266;25239;-72
2024/02/05 04:16:28;;;;;;;1.00;0.50;;;;;;;2.95;100.00;98190.30;87058;277;136764;-71
2024/02/05 04:18:31;;;;;;;1.60;1.10;;;;;;;2.97;100.00;98182.01;87302;273;24023;-73
2024/02/05 04:20:32;;;;;;;0.70;0.70;;;;;;;2.98;100.00;98176.44;87030;273;139279;-71
2024/02/05 04:22:34;;;;;;;0.70;0.30;;;;;;;2.99;100.00;98179.80;87133;273;25250;-71
2024/02/05 04:24:37;;;;;;;0.30;0.10;;;;;;;2.98;100.00;98179.60;87117;266;136739;-71
2024/02/05 04:26:39;;;;;;;0.60;0.30;;;;;;;2.92;100.00;98175.48;87167;269;22568;-71
2024/02/05 04:28:40;;;;;;;3.20;2.60;;;;;;;2.89;100.00;98168.73;87028;275;135326;-71
2024/02/05 04:30:43;;;;;;;2.50;2.30;;;;;;;2.92;100.00;98159.23;87168;269;22846;-71
2024/02/05 04:32:44;;;;;;;3.70;3.00;;;;;;;2.99;100.00;98165.23;87137;278;136551;-73
2024/02/05 04:34:47;;;;;;;2.90;2.60;;;;;;;3.04;100.00;98163.69;87174;278;25149;-70
2024/02/05 04:36:49;;;;;;;1.20;0.80;;;;;;;3.09;100.00;98159.91;87017;274;136377;-72
2024/02/05 04:38:52;;;;;;;2.90;0.70;;;;;;;3.11;100.00;98158.58;87156;270;22737;-71
2024/02/05 04:40:55;;;;;;;12.80;6.50;;;;;;;3.16;100.00;98163.83;87057;270;136274;-71
2024/02/05 04:42:58;;;;;;;5.80;2.90;;;;;;;3.15;100.00;98167.88;87138;269;22534;-71
2024/02/05 04:45:00;;;;;;;3.20;2.20;;;;;;;3.12;100.00;98172.67;87071;269;136215;-71
2024/02/05 04:47:02;;;;;;;3.50;1.60;;;;;;;3.10;100.00;98174.94;87098;270;22572;-72
2024/02/05 04:49:04;;;;;;;2.50;1.20;;;;;;;3.07;100.00;98177.02;87083;278;135823;-72
2024/02/05 04:51:11;;;;;;;1.60;1.00;;;;;;;3.06;100.00;98175.55;87170;269;23158;-72
2024/02/05 04:53:13;;;;;;;3.00;2.10;;;;;;;3.10;100.00;98164.81;87245;269;137645;-72
2024/02/05 04:55:16;;;;;;;3.70;2.90;;;;;;;3.16;100.00;98169.86;87084;266;25105;-70
2024/02/05 04:57:18;;;;;;;2.80;1.40;;;;;;;3.20;100.00;98171.75;86904;274;138590;-72
2024/02/05 04:59:20;;;;;;;4.90;1.00;;;;;;;3.19;100.00;98175.89;87125;278;23742;-72
2024/02/05 05:01:22;;;;;;;0.20;0.20;;;;;;;3.19;100.00;98165.50;87061;267;136787;-69
2024/02/05 05:03:24;;;;;;;1.80;0.40;;;;;;;3.20;100.00;98162.77;87219;269;23996;-73
2024/02/05 05:05:26;;;;;;;4.90;4.30;;;;;;;3.19;100.00;98164.54;87115;269;136178;-71
2024/02/05 05:07:28;;;;;;;7.40;4.40;;;;;;;3.15;100.00;98171.64;86949;275;25294;-72
2024/02/05 05:09:30;;;;;;;3.90;2.20;;;;;;;3.12;100.00;98166.32;86977;270;136180;-70
2024/02/05 05:11:32;;;;;;;4.00;1.20;;;;;;;3.16;100.00;98171.00;87054;274;22562;-73
2024/02/05 05:13:33;;;;;;;1.50;0.40;;;;;;;3.22;100.00;98170.88;86860;272;136939;-72
2024/02/05 05:15:35;;;;;;;1.70;0.90;;;;;;;3.23;100.00;98169.50;87116;271;23907;-70
2024/02/05 05:19:30;;;;;;;5.00;3.80;;;;;;;3.16;100.00;98168.70;84736;304;617381;-72
2024/02/05 05:21:32;;;;;;;3.30;2.40;;;;;;;3.17;100.00;98170.64;85950;287;135176;-71
2024/02/05 05:23:34;;;;;;;1.10;0.90;;;;;;;3.17;100.00;98169.42;86400;284;22545;-70
2024/02/05 05:25:36;;;;;;;1.00;0.90;;;;;;;3.15;100.00;98171.08;86283;283;135761;-72
2024/02/05 05:27:38;;;;;;;0.90;0.60;;;;;;;3.21;100.00;98174.92;86478;283;22638;-72
2024/02/05 05:29:40;;;;;;;1.40;1.10;;;;;;;3.28;100.00;98174.35;86327;283;136120;-71
2024/02/05 05:31:42;;;;;;;2.10;1.90;;;;;;;3.32;100.00;98176.85;86399;287;23246;-70
2024/02/05 05:33:45;;;;;;;4.10;2.90;;;;;;;3.35;100.00;98169.89;86467;271;591481;-70
2024/02/05 05:35:47;;;;;;;2.30;2.00;;;;;;;3.34;100.00;98172.98;86811;280;22555;-70
2024/02/05 05:37:49;;;;;;;1.50;0.50;;;;;;;3.34;100.00;98176.09;86933;273;136560;-71
2024/02/05 05:39:51;;;;;;;0.70;0.50;;;;;;;3.29;100.00;98179.51;87097;273;25204;-74
2024/02/05 05:41:53;;;;;;;2.40;0.50;;;;;;;3.29;100.00;98177.35;87090;273;137635;-70
2024/02/05 05:43:55;;;;;;;0.40;0.20;;;;;;;3.35;100.00;98180.88;87121;273;22562;-71
2024/02/05 05:45:57;;;;;;;0.70;0.20;;;;;;;3.36;100.00;98178.80;87071;273;136034;-74
2024/02/05 05:47:59;;;;;;;1.00;0.30;;;;;;;3.37;100.00;98172.61;87151;269;24017;-70
2024/02/05 05:50:01;;;;;;;1.00;0.40;;;;;;;3.38;100.00;98168.41;86923;280;135707;-71
2024/02/05 05:52:05;;;;;;;1.40;0.60;;;;;;;3.42;100.00;98172.20;87030;280;136033;-75
2024/02/05 05:54:08;;;;;;;0.40;0.20;;;;;;;3.43;100.00;98159.20;87123;272;25159;-73
2024/02/05 05:56:10;;;;;;;0.30;0.20;;;;;;;3.38;100.00;98148.60;87093;276;136798;-77
2024/02/05 05:58:12;;;;;;;0.80;0.20;;;;;;;3.33;100.00;98149.02;87458;273;25233;-74
2024/02/05 06:00:14;;;;;;;0.30;0.10;;;;;;;3.30;100.00;98147.46;86902;273;137082;-74
2024/02/05 06:02:16;;;;;;;0.90;0.10;;;;;;;3.34;100.00;98144.17;86918;278;22597;-74
2024/02/05 06:04:18;;;;;;;0.20;0.20;;;;;;;3.42;100.00;98147.20;87377;274;136766;-74
2024/02/05 06:06:19;;;;;;;2.10;1.30;;;;;;;3.47;100.00;98146.30;86984;273;23504;-74
2024/02/05 06:08:22;;;;;;;2.20;0.40;;;;;;;3.51;100.00;98145.65;87371;281;137259;-74
2024/02/05 06:10:23;;;;;;;0.60;0.20;;;;;;;3.49;100.00;98143.95;87068;273;26658;-75
2024/02/05 06:12:26;;;;;;;0.50;0.20;;;;;;;3.44;100.00;98141.81;87102;276;135852;-74
2024/02/05 06:14:30;;;;;;;0.40;0.20;;;;;;;3.40;100.00;98140.02;87060;272;23386;-75
2024/02/05 06:16:33;;;;;;;1.10;0.80;;;;;;;3.38;100.00;98132.23;87602;277;135711;-75
2024/02/05 06:18:35;;;;;;;3.70;2.30;;;;;;;3.40;100.00;98124.78;87032;273;22584;-74
2024/02/05 06:20:37;;;;;;;4.40;3.70;;;;;;;3.43;100.00;98115.44;87123;266;136587;-74
2024/02/05 06:22:39;;;;;;;6.80;3.60;;;;;;;3.44;100.00;98126.71;87235;277;22944;-73
2024/02/05 06:24:40;;;;;;;2.80;2.00;;;;;;;3.46;100.00;98126.59;87296;280;136492;-74
2024/02/05 06:26:44;;;;;;;0.80;0.80;;;;;;;3.43;100.00;98130.35;87731;276;25083;-73
2024/02/05 06:28:46;;;;;;;1.00;1.00;;;;;;;3.40;100.00;98129.03;87196;280;136351;-72
2024/02/05 06:30:50;;;;;;;0.70;0.70;;;;;;;3.40;100.00;98131.39;87299;281;22662;-72
2024/02/05 06:32:52;;;;;;;1.30;1.00;;;;;;;3.39;100.00;98131.75;87611;266;136919;-71
2024/02/05 06:34:54;;;;;;;1.60;0.80;;;;;;;3.35;100.00;98137.20;87672;282;25099;-71
2024/02/05 06:36:56;;;;;;;2.20;0.90;;;;;;;3.31;100.00;98135.40;87219;270;136008;-70
2024/02/05 06:38:58;;;;;;;1.40;0.90;;;;;;;3.36;100.00;98146.13;87245;270;23938;-71
2024/02/05 06:40:59;;;;;;;2.40;2.00;;;;;;;3.45;100.00;98148.59;87025;270;136416;-72
2024/02/05 06:43:03;;;;;;;1.30;1.20;;;;;;;3.51;100.00;98149.50;86958;281;22816;-71
2024/02/05 06:45:07;;;;;;;1.00;0.50;;;;;;;3.49;100.00;98142.57;86876;279;136123;-73
2024/02/05 06:47:09;;;;;;;1.60;0.80;;;;;;;3.45;100.00;98144.81;87085;277;24035;-71
2024/02/05 06:49:11;;;;;;;0.70;0.70;;;;;;;3.44;100.00;98141.86;86887;273;136787;-72
2024/02/05 06:51:14;;;;;;;1.20;0.60;;;;;;;3.41;100.00;98135.55;87169;269;25101;-71
2024/02/05 06:53:16;;;;;;;0.70;0.30;;;;;;;3.43;100.00;98130.39;87093;274;136405;-74
2024/02/05 06:55:18;;;;;;;1.60;0.50;;;;;;;3.47;100.00;98130.33;86887;274;24968;-72
2024/02/05 06:57:20;;;;;;;0.80;0.60;;;;;;;3.53;100.00;98123.85;87019;273;137831;-72
2024/02/05 06:59:22;;;;;;;3.40;1.30;;;;;;;3.57;100.00;98119.25;87047;277;22572;-72
2024/02/05 07:01:25;;;;;;;1.90;1.40;;;;;;;3.56;100.00;98111.31;86749;281;135881;-72
2024/02/05 07:03:27;;;;;;;2.30;0.50;;;;;;;3.50;100.00;98114.29;87012;275;24076;-71
2024/02/05 07:05:29;;;;;;;1.70;0.70;;;;;;;3.43;100.00;98118.80;86866;274;135985;-70
2024/02/05 07:07:31;;;;;;;2.50;0.70;;;;;;;3.38;100.00;98115.20;87080;274;22567;-73
2024/02/05 07:09:36;;;;;;;2.80;1.40;;;;;;;3.43;100.00;98118.92;86718;279;136025;-70
2024/02/05 07:11:38;;;;;;;0.90;0.80;;;;;;;3.52;100.00;98118.47;86910;274;25629;-70
2024/02/05 07:13:39;;;;;;;3.30;1.80;;;;;;;3.59;100.00;98118.69;86711;275;136598;-72
2024/02/05 07:15:42;;;;;;;3.50;1.70;;;;;;;3.61;100.00;98116.48;86794;274;24004;-71
2024/02/05 07:17:45;;;;;;;2.60;1.00;;;;;;;3.60;100.00;98113.42;86846;275;136263;-71
2024/02/05 07:19:46;;;;;;;4.20;3.20;;;;;;;3.50;100.00;98111.16;87045;270;22568;-70
2024/02/05 07:21:50;;;;;;;3.00;2.20;;;;;;;3.38;100.00;98112.54;87137;270;135555;-69
2024/02/05 07:23:52;;;;;;;2.40;1.70;;;;;;;3.32;100.00;98110.66;87069;274;25094;-71
2024/02/05 07:25:54;;;;;;;3.20;2.20;;;;;;;3.33;100.00;98109.73;86659;274;135518;-73
2024/02/05 07:27:56;;;;;;;9.00;2.10;;;;;;;3.35;100.00;98111.80;86912;277;24014;-71
2024/02/05 07:29:58;;;;;;;3.20;2.30;;;;;;;3.37;100.00;98110.63;86928;281;135885;-73
2024/02/05 07:32:00;;;;;;;2.00;1.50;;;;;;;3.34;100.00;98099.16;86937;273;22571;-71
2024/02/05 07:34:03;;;;;;;1.90;0.80;;;;;;;3.26;100.00;98104.39;86986;273;23780;-71
2024/02/05 07:36:06;;;;;;;1.60;0.70;;;;;;;3.18;100.00;98104.80;86875;277;135962;-72
2024/02/05 07:38:08;;;;;;;1.40;1.00;;;;;;;3.11;100.00;98107.53;87361;268;25079;-70
2024/02/05 07:40:11;;;;;;;1.70;0.80;;;;;;;3.14;100.00;98107.48;86922;273;137912;-70
2024/02/05 07:42:13;;;;;;;1.80;1.00;;;;;;;3.19;100.00;98109.46;87097;269;22724;-70
2024/02/05 07:44:15;;;;;;;1.20;0.90;;;;;;;3.24;100.00;98112.08;86871;273;136364;-70
2024/02/05 07:46:17;;;;;;;1.80;1.40;;;;;;;3.27;100.00;98109.73;86953;274;22608;-71
2024/02/05 07:48:19;;;;;;;2.20;1.80;;;;;;;3.24;100.00;98113.17;86887;278;136250;-69
2024/02/05 07:50:22;;;;;;;2.00;1.40;;;;;;;3.16;100.00;98104.87;87140;274;22571;-70
2024/02/05 07:52:26;;;;;;;3.60;1.40;;;;;;;3.10;100.00;98103.83;86757;274;136476;-70
2024/02/05 07:54:28;;;;;;;1.80;1.00;;;;;;;3.05;100.00;98099.70;86922;274;22848;-71
2024/02/05 07:56:30;;;;;;;1.90;0.80;;;;;;;3.02;100.00;98101.19;86879;274;135859;-73
2024/02/05 07:58:31;;;;;;;1.70;0.80;;;;;;;3.02;100.00;98095.20;86849;275;25348;-70
2024/02/05 08:00:33;;;;;;;1.80;1.60;;;;;;;2.99;100.00;98098.55;86842;278;137784;-71
2024/02/05 08:02:35;;;;;;;2.20;1.30;;;;;;;2.93;100.00;98100.90;86815;270;22584;-69
2024/02/05 08:04:37;;;;;;;2.00;1.30;;;;;;;2.87;100.00;98100.59;86741;281;136722;-71
2024/02/05 08:06:40;;;;;;;2.10;1.60;;;;;;;2.78;100.00;98099.72;86948;281;22648;-68
2024/02/05 08:08:42;;;;;;;2.20;1.80;;;;;;;2.68;100.00;98088.45;86885;273;135988;-72
2024/02/05 08:10:45;;;;;;;2.50;1.70;;;;;;;2.54;100.00;98091.50;86886;278;24014;-71
2024/02/05 08:12:46;;;;;;;2.70;1.80;;;;;;;2.40;100.00;98088.70;86966;274;137566;-71
2024/02/05 08:14:48;;;;;;;2.60;1.50;;;;;;;2.32;100.00;98090.25;86955;269;22562;-70
2024/02/05 08:16:51;;;;;;;3.30;1.80;;;;;;;2.27;100.00;98090.74;86871;273;136380;-72
2024/02/05 08:18:52;;;;;;;4.40;3.20;;;;;;;2.19;100.00;98085.41;87150;277;23365;-71
2024/02/05 08:20:54;;;;;;;3.90;3.50;;;;;;;2.13;100.00;98086.98;87111;278;137742;-72
2024/02/05 08:22:56;;;;;;;2.40;1.20;;;;;;;2.13;100.00;98087.35;87164;278;26320;-75
2024/02/05 08:24:58;;;;;;;1.30;1.10;;;;;;;2.14;100.00;98089.42;87207;271;137455;-71
2024/02/05 08:27:00;;;;;;;3.20;1.90;;;;;;;2.14;100.00;98087.40;87020;275;25079;-73
2024/02/05 08:29:02;;;;;;;2.70;1.80;;;;;;;2.14;100.00;98086.19;87108;274;136794;-74
2024/02/05 08:31:05;;;;;;;2.00;1.10;;;;;;;2.16;100.00;98092.63;87217;271;22720;-72
2024/02/05 08:33:07;;;;;;;3.90;1.20;;;;;;;2.16;100.00;98090.85;87063;271;137544;-73
2024/02/05 08:35:09;;;;;;;1.00;0.80;;;;;;;2.19;100.00;98092.09;87348;271;24241;-73
2024/02/05 08:37:12;;;;;;;3.30;1.00;;;;;;;2.21;100.00;98091.63;87199;271;136083;-71
2024/02/05 08:39:14;;;;;;;2.10;0.70;;;;;;;2.19;100.00;98086.39;87250;274;27207;-74
2024/02/05 08:41:16;;;;;;;2.10;1.50;;;;;;;2.13;100.00;98083.77;87109;270;135730;-73
2024/02/05 08:43:18;;;;;;;1.30;1.20;;;;;;;2.15;100.00;98086.89;87099;268;22539;-73
2024/02/05 08:45:20;;;;;;;1.50;1.10;;;;;;;2.23;100.00;98085.73;86894;276;137499;-73
2024/02/05 08:47:22;;;;;;;2.80;1.10;;;;;;;2.30;100.00;98077.73;87154;271;25079;-75
2024/02/05 08:49:24;;;;;;;1.20;1.10;;;;;;;2.33;100.00;98081.69;86939;270;136861;-72
2024/02/05 08:51:30;;;;;;;0.70;0.70;;;;;;;2.35;100.00;98069.70;87162;270;25252;-74
2024/02/05 08:53:33;;;;;;;0.60;0.50;;;;;;;2.41;100.00;98068.60;87179;263;138267;-75
2024/02/05 08:55:35;;;;;;;0.90;0.60;;;;;;;2.45;100.00;98069.44;87350;267;23817;-75
2024/02/05 08:57:39;;;;;;;1.80;0.90;;;;;;;2.51;100.00;98071.95;86947;271;138341;-71
2024/02/05 08:59:42;;;;;;;1.20;0.90;;;;;;;2.55;100.00;98066.52;87217;271;25252;-70
2024/02/05 09:01:44;;;;;;;1.20;1.10;;;;;;;2.57;100.00;98070.49;86875;273;136760;-70
2024/02/05 09:03:46;;;;;;;1.00;0.80;;;;;;;2.60;100.00;98065.61;87177;279;25089;-71
2024/02/05 09:05:51;;;;;;;0.90;0.90;;;;;;;2.62;100.00;98062.84;86861;279;136663;-72
2024/02/05 09:07:54;;;;;;;0.90;0.80;;;;;;;2.65;100.00;98059.02;87183;275;24441;-73
2024/02/05 09:09:56;;;;;;;2.20;1.20;;;;;;;2.69;100.00;98049.20;87145;279;136918;-72
2024/02/05 09:11:59;;;;;;;2.90;1.50;;;;;;;2.77;100.00;98050.78;86986;280;22560;-74
2024/02/05 09:14:08;;;;;;;1.70;1.50;;;;;;;2.84;100.00;98051.66;87148;270;22568;-70
2024/02/05 09:16:10;;;;;;;3.90;2.50;;;;;;;2.93;100.00;98054.74;87049;274;137105;-71
2024/02/05 09:18:12;;;;;;;2.50;2.30;;;;;;;3.03;100.00;98059.21;87038;269;22970;-71
2024/02/05 09:20:15;;;;;;;3.70;2.60;;;;;;;3.12;100.00;98037.91;86967;266;137081;-71
2024/02/05 09:22:17;;;;;;;2.80;2.30;;;;;;;3.23;100.00;98038.48;87198;267;24033;-72
2024/02/05 09:24:19;;;;;;;3.20;1.90;;;;;;;3.34;100.00;98052.04;87095;263;136977;-75
2024/02/05 09:26:21;;;;;;;1.60;1.50;;;;;;;3.43;100.00;98045.63;87199;278;25241;-72
2024/02/05 09:28:23;;;;;;;2.30;1.70;;;;;;;3.48;100.00;98045.64;87017;277;136652;-72
2024/02/05 09:30:25;;;;;;;1.80;1.70;;;;;;;3.50;100.00;98035.15;87083;270;22558;-70
2024/02/05 09:32:28;;;;;;;2.30;1.40;;;;;;;3.51;100.00;98032.20;86957;266;136717;-74
2024/02/05 09:34:30;;;;;;;1.80;1.50;;;;;;;3.52;100.00;98034.95;87118;271;24026;-72
2024/02/05 09:36:32;;;;;;;1.40;1.30;;;;;;;3.53;100.00;98039.73;87082;267;136907;-73
2024/02/05 09:38:34;;;;;;;3.20;2.50;;;;;;;3.53;100.00;98045.52;87131;271;22566;-73
2024/02/05 09:40:36;;;;;;;3.20;2.20;;;;;;;3.52;100.00;98047.88;86906;271;137237;-73